createdAt,value
2022-10-25T00:00:30.956Z,15.03937
2022-10-25T00:05:32.944Z,14.860632
2022-10-25T00:10:34.710Z,14.814292
2022-10-25T00:15:36.608Z,14.68956
2022-10-25T00:20:38.520Z,13.449928
2022-10-25T00:25:40.261Z,13.978042
2022-10-25T00:30:42.034Z,14.671296
2022-10-25T00:35:44.016Z,14.748262
2022-10-25T00:40:46.007Z,14.844566
2022-10-25T00:45:47.810Z,14.505178
2022-10-25T00:50:49.617Z,13.281002
2022-10-25T00:55:51.408Z,13.536
2022-10-25T01:00:53.078Z,13.625858
2022-10-25T01:05:54.876Z,13.938596
2022-10-25T01:10:56.367Z,13.732392
2022-10-25T01:15:57.806Z,13.457542
2022-10-25T01:20:59.380Z,13.840514
2022-10-25T01:26:00.893Z,13.578798
2022-10-25T01:31:02.447Z,14.287156
2022-10-25T01:36:04.555Z,13.908918
2022-10-25T01:41:06.018Z,14.12888
2022-10-25T01:46:07.771Z,13.954376
2022-10-25T01:51:09.357Z,14.801754
2022-10-25T01:56:10.827Z,14.467224
2022-10-25T02:01:12.692Z,13.831694
2022-10-25T02:06:14.877Z,14.10797
2022-10-25T02:11:16.328Z,14.0197
2022-10-25T02:16:17.945Z,14.600504
2022-10-25T02:21:19.828Z,13.942462
2022-10-25T02:26:21.459Z,14.050598
2022-10-25T02:31:22.889Z,13.638926
2022-10-25T02:36:24.698Z,12.85926
2022-10-25T02:41:26.122Z,14.175316
2022-10-25T02:46:27.591Z,14.214328
2022-10-25T02:51:29.128Z,13.808748
2022-10-25T02:56:30.643Z,14.35423
2022-10-25T03:01:32.199Z,14.026756
2022-10-25T03:06:34.234Z,14.02597
2022-10-25T03:11:35.887Z,13.407388
2022-10-25T03:16:37.649Z,13.605286
2022-10-25T03:21:41.885Z,13.53345
2022-10-25T03:26:43.701Z,13.085396
2022-10-25T03:31:45.278Z,12.303724
2022-10-25T03:36:47.113Z,13.776182
2022-10-25T03:41:48.660Z,13.046208
2022-10-25T03:46:50.123Z,13.636714
2022-10-25T03:51:53.965Z,13.712526
2022-10-25T03:56:59.551Z,13.391512
2022-10-25T04:02:01.547Z,13.610578
2022-10-25T04:07:03.615Z,14.170024
2022-10-25T04:12:05.571Z,14.682152
2022-10-25T04:17:07.304Z,14.927978
2022-10-25T04:22:09.428Z,14.359536
2022-10-25T04:27:11.466Z,15.856474
2022-10-25T04:32:13.302Z,16.415404
2022-10-25T04:37:15.727Z,16.570938
2022-10-25T04:42:17.732Z,17.107356
2022-10-25T04:47:19.476Z,17.760744
2022-10-25T04:52:21.362Z,18.064214
2022-10-25T04:57:23.121Z,18.011428
2022-10-25T05:02:24.621Z,18.043656
2022-10-25T05:07:26.855Z,18.433998
2022-10-25T05:12:28.854Z,18.841736
2022-10-25T05:17:30.507Z,19.22334
2022-10-25T05:22:32.083Z,19.58235
2022-10-25T05:27:33.938Z,19.838082
2022-10-25T05:32:35.846Z,20.011352
2022-10-25T05:37:37.723Z,20.273964
2022-10-25T05:42:39.396Z,21.094218
2022-10-25T05:47:40.840Z,21.218882
2022-10-25T05:52:42.740Z,21.745002
2022-10-25T05:57:44.568Z,22.009188
2022-10-25T06:02:46.714Z,21.796634
2022-10-25T06:07:49.083Z,22.313798
2022-10-25T06:12:51.140Z,22.516962
2022-10-25T06:17:52.844Z,22.472142
2022-10-25T06:22:54.859Z,23.37589
2022-10-25T06:27:56.441Z,23.42546
2022-10-25T06:32:59.849Z,22.881984
2022-10-25T06:38:02.574Z,23.421104
2022-10-25T06:43:04.222Z,23.293794
2022-10-25T06:48:05.822Z,24.056446
2022-10-25T06:53:07.479Z,24.054926
2022-10-25T06:58:09.007Z,24.174054
2022-10-25T07:03:10.478Z,24.046934
2022-10-25T07:08:13.028Z,24.52784
2022-10-25T07:13:14.508Z,23.659698
2022-10-25T07:18:16.283Z,25.260504
2022-10-25T07:23:18.314Z,23.965516
2022-10-25T07:28:19.889Z,24.690038
2022-10-25T07:33:21.483Z,25.217936
2022-10-25T07:38:26.994Z,24.145856
2022-10-25T07:43:29.421Z,24.54065
2022-10-25T07:48:31.019Z,25.19959
2022-10-25T07:53:32.681Z,25.48979
2022-10-25T07:58:34.610Z,25.482326
2022-10-25T08:03:36.503Z,26.41426
2022-10-25T08:08:38.212Z,26.888124
2022-10-25T08:13:39.907Z,26.17443
2022-10-25T08:18:41.350Z,26.746634
2022-10-25T08:23:42.862Z,25.774046
2022-10-25T08:28:44.528Z,26.447804
2022-10-25T08:33:46.104Z,27.29771
2022-10-25T08:38:47.925Z,26.560772
2022-10-25T08:43:49.688Z,27.680834
2022-10-25T08:48:51.306Z,26.96159
2022-10-25T08:58:54.384Z,27.744638
2022-10-25T09:03:55.811Z,26.887242
2022-10-25T09:08:57.448Z,27.265956
2022-10-25T09:13:58.888Z,27.986056
2022-10-25T09:19:00.487Z,28.190862
2022-10-25T09:24:02.365Z,27.67907
2022-10-25T09:29:03.962Z,27.090284
2022-10-25T09:34:05.450Z,26.730744
2022-10-25T09:39:07.062Z,27.463232
2022-10-25T09:44:08.553Z,27.071504
2022-10-25T09:49:10.247Z,27.949648
2022-10-25T09:54:12.026Z,27.766024
2022-10-25T09:59:13.970Z,27.852788
2022-10-25T10:04:15.902Z,27.3136
2022-10-25T10:09:17.861Z,27.190686
2022-10-25T10:14:19.656Z,28.112538
2022-10-25T10:19:21.473Z,28.925576
2022-10-25T10:24:23.268Z,29.447966
2022-10-25T10:29:25.070Z,28.86819
2022-10-25T10:34:26.872Z,29.247352
2022-10-25T10:39:28.983Z,28.535802
2022-10-25T10:44:30.758Z,28.50603
2022-10-25T10:49:32.328Z,28.295484
2022-10-25T10:54:33.858Z,28.626976
2022-10-25T10:59:35.421Z,28.557472
2022-10-25T11:04:37.091Z,29.059318
2022-10-25T11:09:39.056Z,28.398558
2022-10-25T11:14:40.786Z,28.944764
2022-10-25T11:19:42.464Z,29.103894
2022-10-25T11:24:44.277Z,28.52348
2022-10-25T11:29:46.240Z,28.910324
2022-10-25T11:34:47.989Z,29.1498
2022-10-25T11:39:49.999Z,29.309148
2022-10-25T11:44:51.475Z,29.597164
2022-10-25T11:49:56.829Z,29.11338
2022-10-25T11:54:58.886Z,29.072562
2022-10-25T12:00:00.755Z,28.513738
2022-10-25T12:05:02.202Z,28.87393
2022-10-25T12:10:03.960Z,29.356154
2022-10-25T12:15:05.428Z,29.207634
2022-10-25T12:20:07.316Z,29.030632
2022-10-25T12:25:09.120Z,29.261478
2022-10-25T12:30:10.799Z,28.625646
2022-10-25T12:35:12.274Z,28.966176
2022-10-25T12:40:14.213Z,29.012938
2022-10-25T12:45:15.734Z,29.365626
2022-10-25T12:55:19.713Z,29.441778
2022-10-25T13:00:21.617Z,29.244706
2022-10-25T13:05:23.205Z,28.897758
2022-10-25T13:15:27.256Z,28.811686
2022-10-25T13:20:29.131Z,28.052466
2022-10-25T13:25:30.781Z,28.786962
2022-10-25T13:30:32.684Z,28.040986
2022-10-25T13:35:34.677Z,27.808172
2022-10-25T13:40:37.818Z,28.495636
2022-10-25T13:45:39.240Z,28.089348
2022-10-25T13:50:40.708Z,27.98653
2022-10-25T13:55:42.332Z,27.968632
2022-10-25T14:00:47.798Z,27.64003
2022-10-25T14:05:53.124Z,26.70005
2022-10-25T14:10:55.438Z,26.67557
2022-10-25T14:15:56.973Z,26.873076
2022-10-25T14:20:58.502Z,26.686398
2022-10-25T14:26:00.133Z,26.662326
2022-10-25T14:31:01.782Z,26.471008
2022-10-25T14:36:03.251Z,27.242128
2022-10-25T14:41:05.088Z,27.127356
2022-10-25T14:46:06.594Z,26.912808
2022-10-25T14:51:08.222Z,26.700728
2022-10-25T14:56:09.785Z,26.579592
2022-10-25T15:01:11.660Z,26.415834
2022-10-25T15:06:13.415Z,25.901804
2022-10-25T15:11:21.722Z,25.890134
2022-10-25T15:16:23.537Z,25.728574
2022-10-25T15:21:25.307Z,25.52594
2022-10-25T15:26:27.322Z,25.277914
2022-10-25T15:31:29.135Z,25.250558
2022-10-25T15:36:31.102Z,25.27615
2022-10-25T15:41:33.350Z,25.170904
2022-10-25T15:46:35.149Z,24.897042
2022-10-25T15:51:36.967Z,24.881994
2022-10-25T15:56:38.916Z,25.002926
2022-10-25T16:01:40.937Z,24.598416
2022-10-25T16:06:44.134Z,23.969642
2022-10-25T16:11:47.263Z,23.84742
2022-10-25T16:16:49.247Z,23.674788
2022-10-25T16:21:51.269Z,23.9772
2022-10-25T16:26:53.510Z,23.560722
2022-10-25T16:31:55.803Z,23.524722
2022-10-25T16:36:57.507Z,23.322182
2022-10-25T16:41:59.598Z,22.973878
2022-10-25T16:47:01.325Z,22.978532
2022-10-25T16:52:03.010Z,23.196826
2022-10-25T16:57:04.671Z,23.029296
2022-10-25T17:02:07.111Z,22.879474
2022-10-25T17:07:09.124Z,22.479578
2022-10-25T17:12:11.491Z,22.456632
2022-10-25T17:17:13.756Z,21.987056
2022-10-25T17:22:15.868Z,21.932968
2022-10-25T17:27:17.716Z,21.480992
2022-10-25T17:32:20.096Z,21.194104
2022-10-25T17:37:22.199Z,20.869058
2022-10-25T17:42:24.676Z,20.685448
2022-10-25T17:47:26.328Z,20.55172
2022-10-25T17:52:28.080Z,20.527878
2022-10-25T17:57:29.812Z,20.446664
2022-10-25T18:02:31.655Z,20.435008
2022-10-25T18:07:34.997Z,20.111916
2022-10-25T18:12:37.161Z,20.458592
2022-10-25T18:17:38.733Z,20.242496
2022-10-25T18:22:40.392Z,19.525086
2022-10-25T18:27:42.082Z,19.40813
2022-10-25T18:32:43.746Z,19.220544
2022-10-25T18:37:45.368Z,19.264306
2022-10-25T18:42:47.876Z,19.107442
2022-10-25T18:47:49.642Z,19.111852
2022-10-25T18:52:51.652Z,18.896652
2022-10-25T18:57:53.436Z,19.233232
2022-10-25T19:02:55.131Z,18.750372
2022-10-25T19:07:56.909Z,18.734496
2022-10-25T19:12:58.528Z,18.92428
2022-10-25T19:18:00.084Z,18.936452
2022-10-25T19:23:01.738Z,18.297976
2022-10-25T19:28:03.399Z,18.522716
2022-10-25T19:33:04.851Z,17.609728
2022-10-25T19:38:06.402Z,17.590744
2022-10-25T19:43:08.159Z,17.540428
2022-10-25T19:48:10.154Z,17.214962
2022-10-25T19:53:11.953Z,17.412698
2022-10-25T19:58:13.991Z,17.310302
2022-10-25T20:03:15.886Z,17.353372
2022-10-25T20:08:17.673Z,17.01971
2022-10-25T20:13:19.755Z,16.65648
2022-10-25T20:18:21.712Z,16.45371
2022-10-25T20:23:23.482Z,16.64861
2022-10-25T20:28:25.195Z,16.355032
2022-10-25T20:33:27.008Z,16.623452
2022-10-25T20:38:29.070Z,16.389092
2022-10-25T20:43:30.701Z,16.413816
2022-10-25T20:48:32.166Z,16.405606
2022-10-25T20:53:33.752Z,16.953328
2022-10-25T20:58:35.263Z,16.830442
2022-10-25T21:03:37.143Z,16.4493
2022-10-25T21:08:38.802Z,16.61569
2022-10-25T21:13:40.795Z,16.91342
2022-10-25T21:18:42.822Z,16.862222
2022-10-25T21:23:44.734Z,16.67906
2022-10-25T21:28:46.646Z,16.459708
2022-10-25T21:33:50.180Z,16.235946
2022-10-25T21:38:58.001Z,16.118108
2022-10-25T21:43:59.934Z,15.650718
2022-10-25T21:49:01.535Z,16.054996
2022-10-25T21:54:03.021Z,15.253958
2022-10-25T21:59:05.041Z,14.98429
2022-10-25T22:04:06.702Z,15.185188
2022-10-25T22:09:08.321Z,15.51638
2022-10-25T22:14:10.088Z,15.166394
2022-10-25T22:19:11.818Z,15.072818
2022-10-25T22:24:13.649Z,15.157384
2022-10-25T22:29:15.765Z,15.015094
2022-10-25T22:34:17.845Z,14.637928
2022-10-25T22:39:19.517Z,14.786216
2022-10-25T22:49:24.005Z,14.465364
2022-10-25T22:54:25.762Z,14.114048
2022-10-25T22:59:27.716Z,14.128446
2022-10-25T23:04:29.663Z,14.334282
2022-10-25T23:09:31.621Z,14.348842
2022-10-25T23:14:33.730Z,13.663988
2022-10-25T23:19:35.838Z,13.526284
2022-10-25T23:24:37.764Z,14.02411
2022-10-25T23:29:39.782Z,13.552772
2022-10-25T23:34:41.663Z,13.983076
2022-10-25T23:39:43.538Z,13.66928
2022-10-25T23:44:45.494Z,13.24207
2022-10-25T23:49:47.265Z,13.51304
2022-10-25T23:54:49.055Z,13.706352
2022-10-25T23:59:50.986Z,13.026246
